createdAt,value
2022-11-24T00:02:31.405Z,2.67
2022-11-24T00:05:38.439Z,2.50
2022-11-24T00:08:42.253Z,2.17
2022-11-24T00:11:44.561Z,2.20
2022-11-24T00:14:47.133Z,2.30
2022-11-24T00:17:49.356Z,2.70
2022-11-24T00:20:54.621Z,2.40
2022-11-24T00:23:57.377Z,2.70
2022-11-24T00:26:59.586Z,2.15
2022-11-24T00:30:01.865Z,2.08
2022-11-24T00:33:04.213Z,2.10
2022-11-24T00:36:06.569Z,2.30
2022-11-24T00:39:13.233Z,2.37
2022-11-24T00:42:15.585Z,2.42
2022-11-24T00:45:17.798Z,2.20
2022-11-24T00:48:20.124Z,2.13
2022-11-24T00:51:26.466Z,2.00
2022-11-24T00:54:29.210Z,2.60
2022-11-24T00:57:31.491Z,2.38
2022-11-24T01:00:33.695Z,2.42
2022-11-24T01:03:36.807Z,2.20
2022-11-24T01:06:39.106Z,2.22
2022-11-24T01:09:43.241Z,2.77
2022-11-24T01:12:45.446Z,2.40
2022-11-24T01:15:47.696Z,2.50
2022-11-24T01:18:50.701Z,2.22
2022-11-24T01:21:53.439Z,2.90
2022-11-24T01:24:55.684Z,2.40
2022-11-24T01:27:57.882Z,2.30
2022-11-24T01:31:01.653Z,2.40
2022-11-24T01:34:04.066Z,1.90
2022-11-24T01:37:06.356Z,2.30
2022-11-24T01:40:09.463Z,2.23
2022-11-24T01:43:21.700Z,2.33
2022-11-24T01:46:36.058Z,2.28
2022-11-24T01:49:54.660Z,2.30
2022-11-24T01:52:57.303Z,2.50
2022-11-24T01:55:59.815Z,2.23
2022-11-24T01:59:05.003Z,2.10
2022-11-24T02:02:08.017Z,2.55
2022-11-24T02:05:19.367Z,2.28
2022-11-24T02:08:30.587Z,2.45
2022-11-24T02:11:39.639Z,2.30
2022-11-24T02:14:43.196Z,2.33
2022-11-24T02:17:45.493Z,2.40
2022-11-24T02:20:47.781Z,2.40
2022-11-24T02:24:09.562Z,2.40
2022-11-24T02:27:12.002Z,2.20
2022-11-24T02:30:14.415Z,2.20
2022-11-24T02:33:17.302Z,2.47
2022-11-24T02:36:19.500Z,1.90
2022-11-24T02:39:21.705Z,2.40
2022-11-24T02:42:26.323Z,2.23
2022-11-24T02:45:29.374Z,2.00
2022-11-24T02:48:31.591Z,2.33
2022-11-24T02:51:34.525Z,2.53
2022-11-24T02:54:37.158Z,2.60
2022-11-24T02:57:39.575Z,2.67
2022-11-24T03:00:41.979Z,2.58
2022-11-24T03:03:44.183Z,2.50
2022-11-24T03:06:46.373Z,2.15
2022-11-24T03:09:48.857Z,2.63
2022-11-24T03:12:51.165Z,2.40
2022-11-24T03:15:53.600Z,2.00
2022-11-24T03:18:56.168Z,2.22
2022-11-24T03:21:58.419Z,2.55
2022-11-24T03:25:01.049Z,2.35
2022-11-24T03:28:03.507Z,2.10
2022-11-24T03:31:07.367Z,2.40
2022-11-24T03:34:09.707Z,2.50
2022-11-24T03:37:12.061Z,2.45
2022-11-24T03:40:14.728Z,2.65
2022-11-24T03:43:17.089Z,2.70
2022-11-24T03:46:19.436Z,2.50
2022-11-24T03:49:22.068Z,2.88
2022-11-24T03:52:26.596Z,2.25
2022-11-24T03:55:28.904Z,2.30
2022-11-24T03:58:31.732Z,2.40
2022-11-24T04:01:34.059Z,2.40
2022-11-24T04:04:36.395Z,2.70
2022-11-24T04:07:38.764Z,2.90
2022-11-24T04:10:41.261Z,2.58
2022-11-24T04:13:47.522Z,2.60
2022-11-24T04:16:49.865Z,2.72
2022-11-24T04:19:52.116Z,3.28
2022-11-24T04:22:54.304Z,2.72
2022-11-24T04:25:56.556Z,3.13
2022-11-24T04:28:58.747Z,3.33
2022-11-24T04:32:00.989Z,3.03
2022-11-24T04:35:04.576Z,2.67
2022-11-24T04:38:06.940Z,2.60
2022-11-24T04:41:09.415Z,2.85
2022-11-24T04:44:11.608Z,3.23
2022-11-24T04:47:25.247Z,3.05
2022-11-24T04:50:27.580Z,2.92
2022-11-24T04:53:29.793Z,3.30
2022-11-24T04:56:31.996Z,3.08
2022-11-24T04:59:34.291Z,2.90
2022-11-24T05:02:36.518Z,3.03
2022-11-24T05:05:38.774Z,3.20
2022-11-24T05:08:40.997Z,3.42
2022-11-24T05:11:44.008Z,3.22
2022-11-24T05:14:46.269Z,3.43
2022-11-24T05:17:48.553Z,3.90
2022-11-24T05:20:50.810Z,3.47
2022-11-24T05:23:53.115Z,3.03
2022-11-24T05:26:55.385Z,3.70
2022-11-24T05:29:57.664Z,3.50
2022-11-24T05:33:05.761Z,3.25
2022-11-24T05:36:08.568Z,3.42
2022-11-24T05:39:10.821Z,3.90
2022-11-24T05:42:31.696Z,3.53
2022-11-24T05:45:34.083Z,3.80
2022-11-24T05:49:06.958Z,4.30
2022-11-24T05:52:05.625Z,3.72
2022-11-24T05:55:09.203Z,3.88
2022-11-24T05:58:11.480Z,4.03
2022-11-24T06:01:13.768Z,4.50
2022-11-24T06:04:16.265Z,4.07
2022-11-24T06:07:18.887Z,6.15
2022-11-24T06:10:24.105Z,6.78
2022-11-24T06:13:26.417Z,7.18
2022-11-24T06:16:29.142Z,7.50
2022-11-24T06:19:31.749Z,7.15
2022-11-24T06:22:34.029Z,7.03
2022-11-24T06:25:36.420Z,7.38
2022-11-24T06:28:38.799Z,7.20
2022-11-24T06:31:41.156Z,8.63
2022-11-24T06:34:43.658Z,7.70
2022-11-24T06:37:45.971Z,8.15
2022-11-24T06:40:48.270Z,7.70
2022-11-24T06:43:50.626Z,7.32
2022-11-24T06:50:40.919Z,7.97
2022-11-24T06:53:43.211Z,8.68
2022-11-24T06:56:45.516Z,7.80
2022-11-24T06:59:48.116Z,7.65
2022-11-24T07:02:50.541Z,7.60
2022-11-24T07:05:58.208Z,7.82
2022-11-24T07:09:00.510Z,8.32
2022-11-24T07:12:02.842Z,8.02
2022-11-24T07:15:09.500Z,8.73
2022-11-24T07:18:15.171Z,8.73
2022-11-24T07:21:18.193Z,8.13
2022-11-24T07:24:20.813Z,8.52
2022-11-24T07:27:23.569Z,8.20
2022-11-24T07:30:28.361Z,8.65
2022-11-24T07:36:51.169Z,9.43
2022-11-24T07:39:53.385Z,8.38
2022-11-24T07:42:55.710Z,8.48
2022-11-24T07:46:01.885Z,7.97
2022-11-24T07:49:04.181Z,7.83
2022-11-24T07:52:08.586Z,7.70
2022-11-24T07:55:11.074Z,7.85
2022-11-24T07:58:13.360Z,7.80
2022-11-24T08:01:17.841Z,8.02
2022-11-24T08:04:20.214Z,7.37
2022-11-24T08:07:22.663Z,8.43
2022-11-24T08:10:24.979Z,8.77
2022-11-24T08:13:27.252Z,7.93
2022-11-24T08:16:29.571Z,8.20
2022-11-24T08:19:32.443Z,8.27
2022-11-24T08:22:34.809Z,8.70
2022-11-24T08:25:37.180Z,8.63
2022-11-24T08:28:39.572Z,8.90
2022-11-24T08:31:42.239Z,8.55
2022-11-24T08:34:44.570Z,8.10
2022-11-24T08:37:47.421Z,8.88
2022-11-24T08:40:49.703Z,9.18
2022-11-24T08:43:52.042Z,8.45
2022-11-24T08:46:54.737Z,8.85
2022-11-24T08:49:57.056Z,8.90
2022-11-24T08:52:59.365Z,7.88
2022-11-24T08:56:02.920Z,7.75
2022-11-24T08:59:05.521Z,8.50
2022-11-24T09:02:12.537Z,8.68
2022-11-24T09:05:43.686Z,8.90
2022-11-24T09:08:38.604Z,9.10
2022-11-24T09:11:40.988Z,8.30
2022-11-24T09:14:43.326Z,8.70
2022-11-24T09:17:48.833Z,9.25
2022-11-24T09:20:51.248Z,8.53
2022-11-24T09:23:54.596Z,8.55
2022-11-24T09:26:57.139Z,9.38
2022-11-24T09:29:59.511Z,8.23
2022-11-24T09:33:01.771Z,8.30
2022-11-24T09:36:04.830Z,8.33
2022-11-24T09:39:07.340Z,8.45
2022-11-24T09:42:37.501Z,8.25
2022-11-24T09:46:04.901Z,8.38
2022-11-24T09:49:16.760Z,8.63
2022-11-24T09:52:36.494Z,8.43
2022-11-24T09:55:56.367Z,8.13
2022-11-24T09:59:06.575Z,8.45
2022-11-24T10:02:13.366Z,9.27
2022-11-24T10:05:15.790Z,8.75
2022-11-24T10:08:35.416Z,8.60
2022-11-24T10:11:56.694Z,10.05
2022-11-24T10:15:22.607Z,9.32
2022-11-24T10:18:43.646Z,8.80
2022-11-24T10:21:57.589Z,9.93
2022-11-24T10:25:09.298Z,9.63
2022-11-24T10:28:15.085Z,9.77
2022-11-24T10:31:44.693Z,8.90
2022-11-24T10:34:51.509Z,9.98
2022-11-24T10:38:11.823Z,10.20
2022-11-24T10:42:09.500Z,10.23
2022-11-24T10:45:16.424Z,8.93
2022-11-24T10:49:27.675Z,10.07
2022-11-24T10:52:34.978Z,10.35
2022-11-24T10:55:58.133Z,9.93
2022-11-24T10:59:22.521Z,8.90
2022-11-24T11:02:37.330Z,10.48
2022-11-24T11:11:18.687Z,9.88
2022-11-24T11:15:23.697Z,10.82
2022-11-24T11:18:32.855Z,8.93
2022-11-24T11:21:38.015Z,9.50
2022-11-24T11:38:50.799Z,9.70
2022-11-24T11:43:00.789Z,9.75
2022-11-24T11:46:17.021Z,9.45
2022-11-24T11:50:20.798Z,9.32
2022-11-24T11:53:29.022Z,9.68
2022-11-24T11:56:36.179Z,9.73
2022-11-24T11:59:51.879Z,9.23
2022-11-24T12:03:15.413Z,10.93
2022-11-24T12:07:14.673Z,8.38
2022-11-24T12:20:48.492Z,8.43
2022-11-24T12:24:42.008Z,8.75
2022-11-24T12:27:50.559Z,9.90
2022-11-24T12:31:01.927Z,9.27
2022-11-24T12:34:26.504Z,8.47
2022-11-24T12:37:47.500Z,9.35
2022-11-24T12:41:43.960Z,9.10
2022-11-24T12:45:13.168Z,9.45
2022-11-24T12:48:43.417Z,8.73
2022-11-24T12:51:53.584Z,8.47
2022-11-24T12:54:56.928Z,9.18
2022-11-24T12:58:00.322Z,9.02
2022-11-24T13:01:18.744Z,9.60
2022-11-24T13:04:35.828Z,8.52
2022-11-24T13:07:47.590Z,10.47
2022-11-24T13:11:22.410Z,8.48
2022-11-24T13:14:34.164Z,8.55
2022-11-24T13:17:59.493Z,7.72
2022-11-24T13:21:31.259Z,8.00
2022-11-24T13:24:37.020Z,7.73
2022-11-24T13:27:42.202Z,8.27
2022-11-24T13:30:55.273Z,8.38
2022-11-24T13:33:57.857Z,9.23
2022-11-24T13:37:26.723Z,8.63
2022-11-24T13:40:22.756Z,7.90
2022-11-24T13:43:25.502Z,7.65
2022-11-24T13:47:00.205Z,7.93
2022-11-24T13:50:13.840Z,9.25
2022-11-24T13:53:27.775Z,7.18
2022-11-24T13:56:31.134Z,7.57
2022-11-24T13:59:35.388Z,8.73
2022-11-24T14:02:37.744Z,7.50
2022-11-24T14:05:47.096Z,7.00
2022-11-24T14:08:49.655Z,7.05
2022-11-24T14:12:20.905Z,6.93
2022-11-24T14:15:25.975Z,7.28
2022-11-24T14:18:31.813Z,7.13
2022-11-24T14:21:38.267Z,7.00
2022-11-24T14:24:43.751Z,7.18
2022-11-24T14:27:46.463Z,6.80
2022-11-24T14:30:48.956Z,7.20
2022-11-24T14:34:23.589Z,6.97
2022-11-24T14:37:26.259Z,7.07
2022-11-24T14:40:49.961Z,7.30
2022-11-24T14:44:19.168Z,7.27
2022-11-24T14:47:30.825Z,7.20
2022-11-24T14:50:33.937Z,7.32
2022-11-24T14:53:36.807Z,6.78
2022-11-24T14:56:40.181Z,7.28
2022-11-24T14:59:42.419Z,6.93
2022-11-24T15:02:52.057Z,6.80
2022-11-24T15:06:00.744Z,6.45
2022-11-24T15:09:06.251Z,6.65
2022-11-24T15:12:19.471Z,7.18
2022-11-24T15:15:30.598Z,8.00
2022-11-24T15:18:55.180Z,7.60
2022-11-24T15:21:57.495Z,7.63
2022-11-24T15:25:04.284Z,7.30
2022-11-24T15:28:08.417Z,6.80
2022-11-24T15:31:12.962Z,8.10
2022-11-24T15:34:15.512Z,7.90
2022-11-24T15:37:17.778Z,7.22
2022-11-24T15:40:20.144Z,7.43
2022-11-24T15:43:39.363Z,8.32
2022-11-24T15:46:41.739Z,8.13
2022-11-24T15:49:44.076Z,7.90
2022-11-24T15:52:47.591Z,7.30
2022-11-24T15:55:50.513Z,7.95
2022-11-24T15:58:53.179Z,7.53
2022-11-24T16:01:55.542Z,7.40
2022-11-24T16:04:57.880Z,7.85
2022-11-24T16:08:00.257Z,6.88
2022-11-24T16:11:02.662Z,7.53
2022-11-24T16:14:04.971Z,7.70
2022-11-24T16:17:07.499Z,7.60
2022-11-24T16:20:10.294Z,7.25
2022-11-24T16:23:12.636Z,8.35
2022-11-24T16:26:14.919Z,7.80
2022-11-24T16:29:17.211Z,8.05
2022-11-24T16:32:19.453Z,7.17
2022-11-24T16:35:21.801Z,6.95
2022-11-24T16:38:24.362Z,7.32
2022-11-24T16:41:26.671Z,7.30
2022-11-24T16:44:28.913Z,7.30
2022-11-24T16:47:31.224Z,7.47
2022-11-24T16:50:33.529Z,7.07
2022-11-24T16:53:36.664Z,6.88
2022-11-24T16:56:38.935Z,7.10
2022-11-24T16:59:43.322Z,7.60
2022-11-24T17:02:46.566Z,6.83
2022-11-24T17:06:00.341Z,7.28
2022-11-24T17:09:02.681Z,7.10
2022-11-24T17:12:05.417Z,6.97
2022-11-24T17:15:31.817Z,6.90
2022-11-24T17:18:30.572Z,6.57
2022-11-24T17:21:33.329Z,6.90
2022-11-24T17:24:35.893Z,6.95
2022-11-24T17:27:38.455Z,6.93
2022-11-24T17:30:40.732Z,7.07
2022-11-24T17:33:43.204Z,6.70
2022-11-24T17:36:46.257Z,6.72
2022-11-24T17:40:05.996Z,7.45
2022-11-24T17:43:10.805Z,7.63
2022-11-24T17:46:13.080Z,7.07
2022-11-24T17:49:15.409Z,6.53
2022-11-24T17:52:18.542Z,6.63
2022-11-24T17:55:21.154Z,7.38
2022-11-24T17:58:23.463Z,7.82
2022-11-24T18:01:28.702Z,6.68
2022-11-24T18:04:31.144Z,7.00
2022-11-24T18:07:36.080Z,7.25
2022-11-24T18:10:38.832Z,7.28
2022-11-24T18:13:58.480Z,6.60
2022-11-24T18:17:02.836Z,6.65
2022-11-24T18:20:06.008Z,7.27
2022-11-24T18:23:08.428Z,6.55
2022-11-24T18:26:14.917Z,5.97
2022-11-24T18:29:17.273Z,6.40
2022-11-24T18:32:19.567Z,6.13
2022-11-24T18:35:21.833Z,7.40
2022-11-24T18:38:24.629Z,6.07
2022-11-24T18:41:27.277Z,6.57
2022-11-24T18:44:29.624Z,6.72
2022-11-24T18:47:31.920Z,6.53
2022-11-24T18:50:34.387Z,6.03
2022-11-24T18:53:36.686Z,6.75
2022-11-24T18:56:39.007Z,6.50
2022-11-24T18:59:41.513Z,7.65
2022-11-24T19:02:51.195Z,6.95
2022-11-24T19:05:53.486Z,6.70
2022-11-24T19:08:56.022Z,6.65
2022-11-24T19:11:58.405Z,6.63
2022-11-24T19:15:00.696Z,6.70
2022-11-24T19:18:02.987Z,6.22
2022-11-24T19:21:05.609Z,6.40
2022-11-24T19:24:13.343Z,7.00
2022-11-24T19:27:16.807Z,6.47
2022-11-24T19:30:19.545Z,7.05
2022-11-24T19:33:23.709Z,6.25
2022-11-24T19:36:26.376Z,6.10
2022-11-24T19:39:29.955Z,6.78
2022-11-24T19:42:32.335Z,5.85
2022-11-24T19:45:34.694Z,6.10
2022-11-24T19:48:39.518Z,6.78
2022-11-24T19:51:41.844Z,5.93
2022-11-24T19:54:44.282Z,6.15
2022-11-24T19:57:46.654Z,6.70
2022-11-24T20:00:48.981Z,6.50
2022-11-24T20:04:03.431Z,6.03
2022-11-24T20:07:05.795Z,5.47
2022-11-24T20:10:08.627Z,6.38
2022-11-24T20:13:11.032Z,6.00
2022-11-24T20:16:16.083Z,6.50
2022-11-24T20:19:18.895Z,6.72
2022-11-24T20:22:21.149Z,6.00
2022-11-24T20:25:23.424Z,5.90
2022-11-24T20:28:25.747Z,7.13
2022-11-24T20:31:52.706Z,5.85
2022-11-24T20:34:54.916Z,6.22
2022-11-24T20:37:57.789Z,6.40
2022-11-24T20:41:09.223Z,5.85
2022-11-24T20:44:17.425Z,6.20
2022-11-24T20:47:19.678Z,6.40
2022-11-24T20:50:21.925Z,5.97
2022-11-24T20:53:24.253Z,6.13
2022-11-24T20:56:32.464Z,6.70
2022-11-24T20:59:34.876Z,6.72
2022-11-24T21:02:37.249Z,5.88
2022-11-24T21:05:39.486Z,5.50
2022-11-24T21:08:42.445Z,5.80
2022-11-24T21:11:45.137Z,6.63
2022-11-24T21:14:47.428Z,5.93
2022-11-24T21:17:49.704Z,6.25
2022-11-24T21:20:52.038Z,6.63
2022-11-24T21:23:54.330Z,5.80
2022-11-24T21:26:56.593Z,5.70
2022-11-24T21:29:58.893Z,6.50
2022-11-24T21:33:05.608Z,5.97
2022-11-24T21:36:08.386Z,5.80
2022-11-24T21:39:13.464Z,5.77
2022-11-24T21:42:15.915Z,5.82
2022-11-24T21:45:18.245Z,6.40
2022-11-24T21:48:21.014Z,6.22
2022-11-24T21:51:23.341Z,5.72
2022-11-24T21:54:25.761Z,5.80
2022-11-24T21:57:28.456Z,6.28
2022-11-24T22:00:30.725Z,5.63
2022-11-24T22:03:33.070Z,5.53
2022-11-24T22:06:35.426Z,6.30
2022-11-24T22:09:37.757Z,5.73
2022-11-24T22:12:39.995Z,5.95
2022-11-24T22:15:42.540Z,5.53
2022-11-24T22:18:45.754Z,5.47
2022-11-24T22:21:48.312Z,5.88
2022-11-24T22:24:50.812Z,5.53
2022-11-24T22:27:53.155Z,5.63
2022-11-24T22:30:55.447Z,6.07
2022-11-24T22:33:58.947Z,6.25
2022-11-24T22:37:01.208Z,5.68
2022-11-24T22:40:03.997Z,5.90
2022-11-24T22:43:06.250Z,6.00
2022-11-24T22:46:17.636Z,6.15
2022-11-24T22:49:19.902Z,5.55
2022-11-24T22:52:22.227Z,5.57
2022-11-24T22:55:24.581Z,5.80
2022-11-24T22:58:26.906Z,5.60
2022-11-24T23:01:30.902Z,5.60
2022-11-24T23:04:33.432Z,6.05
2022-11-24T23:07:36.217Z,5.82
2022-11-24T23:10:38.642Z,5.83
2022-11-24T23:13:41.540Z,5.93
2022-11-24T23:16:44.002Z,5.82
2022-11-24T23:19:46.434Z,5.80
2022-11-24T23:22:48.703Z,5.20
2022-11-24T23:25:51.026Z,5.13
2022-11-24T23:28:53.397Z,5.90
2022-11-24T23:31:55.829Z,5.68
2022-11-24T23:34:58.153Z,5.68
2022-11-24T23:38:07.337Z,5.15
2022-11-24T23:41:19.125Z,5.50
2022-11-24T23:44:22.194Z,6.13
2022-11-24T23:47:24.522Z,5.25
2022-11-24T23:50:26.788Z,5.32
2022-11-24T23:53:31.700Z,5.65
2022-11-24T23:56:34.104Z,5.60
2022-11-24T23:59:36.363Z,5.45
